sensor_id;sensor_type;location;lat;lon;timestamp;temperature;humidity
1988;DHT22;12775;46.994;15.498;2023-04-09T00:00:46;7.10;99.30
1988;DHT22;12775;46.994;15.498;2023-04-09T00:03:13;7.20;99.00
1988;DHT22;12775;46.994;15.498;2023-04-09T00:05:41;7.20;99.20
1988;DHT22;12775;46.994;15.498;2023-04-09T00:08:08;7.10;99.50
1988;DHT22;12775;46.994;15.498;2023-04-09T00:10:35;7.10;99.20
1988;DHT22;12775;46.994;15.498;2023-04-09T00:13:03;7.10;99.10
1988;DHT22;12775;46.994;15.498;2023-04-09T00:15:30;7.10;99.10
1988;DHT22;12775;46.994;15.498;2023-04-09T00:17:58;7.10;99.10
1988;DHT22;12775;46.994;15.498;2023-04-09T00:20:25;7.20;98.60
1988;DHT22;12775;46.994;15.498;2023-04-09T00:22:52;7.20;98.40
1988;DHT22;12775;46.994;15.498;2023-04-09T00:25:19;7.20;98.30
1988;DHT22;12775;46.994;15.498;2023-04-09T00:27:47;7.20;98.30
1988;DHT22;12775;46.994;15.498;2023-04-09T00:30:14;7.30;98.10
1988;DHT22;12775;46.994;15.498;2023-04-09T00:32:42;7.30;97.70
1988;DHT22;12775;46.994;15.498;2023-04-09T00:35:09;7.30;97.50
1988;DHT22;12775;46.994;15.498;2023-04-09T00:37:36;7.40;97.40
1988;DHT22;12775;46.994;15.498;2023-04-09T00:40:05;7.40;96.90
1988;DHT22;12775;46.994;15.498;2023-04-09T00:42:32;7.50;96.40
1988;DHT22;12775;46.994;15.498;2023-04-09T00:45:00;7.50;96.40
1988;DHT22;12775;46.994;15.498;2023-04-09T00:47:27;7.50;96.60
1988;DHT22;12775;46.994;15.498;2023-04-09T00:49:54;7.60;96.70
1988;DHT22;12775;46.994;15.498;2023-04-09T00:52:22;7.60;96.40
1988;DHT22;12775;46.994;15.498;2023-04-09T00:54:50;7.60;95.90
1988;DHT22;12775;46.994;15.498;2023-04-09T00:57:18;7.60;95.90
1988;DHT22;12775;46.994;15.498;2023-04-09T00:59:44;7.60;95.60
1988;DHT22;12775;46.994;15.498;2023-04-09T01:02:11;7.60;95.40
1988;DHT22;12775;46.994;15.498;2023-04-09T01:04:39;7.70;95.40
1988;DHT22;12775;46.994;15.498;2023-04-09T01:07:19;7.70;95.40
1988;DHT22;12775;46.994;15.498;2023-04-09T01:09:47;7.70;95.20
1988;DHT22;12775;46.994;15.498;2023-04-09T01:12:51;7.70;95.40
1988;DHT22;12775;46.994;15.498;2023-04-09T01:15:03;7.70;95.10
1988;DHT22;12775;46.994;15.498;2023-04-09T01:17:32;7.70;95.00
1988;DHT22;12775;46.994;15.498;2023-04-09T01:22:56;7.70;95.50
1988;DHT22;12775;46.994;15.498;2023-04-09T01:25:28;7.70;95.40
1988;DHT22;12775;46.994;15.498;2023-04-09T01:28:43;7.70;95.10
1988;DHT22;12775;46.994;15.498;2023-04-09T01:30:56;7.60;95.90
1988;DHT22;12775;46.994;15.498;2023-04-09T01:33:22;7.70;96.00
1988;DHT22;12775;46.994;15.498;2023-04-09T01:35:50;7.60;95.80
1988;DHT22;12775;46.994;15.498;2023-04-09T01:38:17;7.70;95.60
1988;DHT22;12775;46.994;15.498;2023-04-09T01:40:45;7.70;95.80
1988;DHT22;12775;46.994;15.498;2023-04-09T01:43:12;7.70;95.60
1988;DHT22;12775;46.994;15.498;2023-04-09T01:45:39;7.70;95.70
1988;DHT22;12775;46.994;15.498;2023-04-09T01:48:07;7.80;95.60
1988;DHT22;12775;46.994;15.498;2023-04-09T01:50:34;7.80;95.50
1988;DHT22;12775;46.994;15.498;2023-04-09T01:53:01;7.70;95.40
1988;DHT22;12775;46.994;15.498;2023-04-09T01:55:28;7.80;95.10
1988;DHT22;12775;46.994;15.498;2023-04-09T01:57:55;7.80;95.20
1988;DHT22;12775;46.994;15.498;2023-04-09T02:00:22;7.80;95.30
1988;DHT22;12775;46.994;15.498;2023-04-09T02:02:56;7.80;95.70
1988;DHT22;12775;46.994;15.498;2023-04-09T02:05:21;7.80;95.70
1988;DHT22;12775;46.994;15.498;2023-04-09T02:07:51;7.70;95.70
1988;DHT22;12775;46.994;15.498;2023-04-09T02:10:17;7.70;95.70
1988;DHT22;12775;46.994;15.498;2023-04-09T02:12:48;7.70;95.80
1988;DHT22;12775;46.994;15.498;2023-04-09T02:15:11;7.70;95.80
1988;DHT22;12775;46.994;15.498;2023-04-09T02:17:38;7.60;95.90
1988;DHT22;12775;46.994;15.498;2023-04-09T02:20:06;7.70;95.90
1988;DHT22;12775;46.994;15.498;2023-04-09T02:22:34;7.70;95.90
1988;DHT22;12775;46.994;15.498;2023-04-09T02:25:01;7.70;95.90
1988;DHT22;12775;46.994;15.498;2023-04-09T02:27:28;7.70;96.30
1988;DHT22;12775;46.994;15.498;2023-04-09T02:29:56;7.70;96.10
1988;DHT22;12775;46.994;15.498;2023-04-09T02:32:23;7.70;96.10
1988;DHT22;12775;46.994;15.498;2023-04-09T02:34:51;7.70;96.20
1988;DHT22;12775;46.994;15.498;2023-04-09T02:37:19;7.60;96.50
1988;DHT22;12775;46.994;15.498;2023-04-09T02:39:46;7.60;96.70
1988;DHT22;12775;46.994;15.498;2023-04-09T02:42:14;7.60;96.60
1988;DHT22;12775;46.994;15.498;2023-04-09T02:44:41;7.60;96.10
1988;DHT22;12775;46.994;15.498;2023-04-09T02:47:08;7.60;96.10
1988;DHT22;12775;46.994;15.498;2023-04-09T02:49:36;7.60;96.00
1988;DHT22;12775;46.994;15.498;2023-04-09T02:52:03;7.60;96.30
1988;DHT22;12775;46.994;15.498;2023-04-09T02:54:30;7.60;96.10
1988;DHT22;12775;46.994;15.498;2023-04-09T02:56:59;7.60;96.20
1988;DHT22;12775;46.994;15.498;2023-04-09T02:59:26;7.60;96.30
1988;DHT22;12775;46.994;15.498;2023-04-09T03:01:54;7.60;96.10
1988;DHT22;12775;46.994;15.498;2023-04-09T03:04:21;7.60;96.20
1988;DHT22;12775;46.994;15.498;2023-04-09T03:06:48;7.50;96.10
1988;DHT22;12775;46.994;15.498;2023-04-09T03:09:16;7.50;96.10
1988;DHT22;12775;46.994;15.498;2023-04-09T03:11:43;7.50;96.30
1988;DHT22;12775;46.994;15.498;2023-04-09T03:14:10;7.50;96.10
1988;DHT22;12775;46.994;15.498;2023-04-09T03:16:38;7.50;95.90
1988;DHT22;12775;46.994;15.498;2023-04-09T03:19:05;7.60;95.80
1988;DHT22;12775;46.994;15.498;2023-04-09T03:21:32;7.60;95.30
1988;DHT22;12775;46.994;15.498;2023-04-09T03:24:00;7.60;95.50
1988;DHT22;12775;46.994;15.498;2023-04-09T03:26:27;7.60;95.40
1988;DHT22;12775;46.994;15.498;2023-04-09T03:28:55;7.60;95.10
1988;DHT22;12775;46.994;15.498;2023-04-09T03:31:22;7.60;95.60
1988;DHT22;12775;46.994;15.498;2023-04-09T03:33:50;7.60;95.80
1988;DHT22;12775;46.994;15.498;2023-04-09T03:36:18;7.60;95.60
1988;DHT22;12775;46.994;15.498;2023-04-09T03:38:45;7.60;95.80
1988;DHT22;12775;46.994;15.498;2023-04-09T03:41:12;7.60;95.80
1988;DHT22;12775;46.994;15.498;2023-04-09T03:43:40;7.60;96.10
1988;DHT22;12775;46.994;15.498;2023-04-09T03:46:11;7.60;96.10
1988;DHT22;12775;46.994;15.498;2023-04-09T03:48:37;7.60;96.00
1988;DHT22;12775;46.994;15.498;2023-04-09T03:51:05;7.50;96.50
1988;DHT22;12775;46.994;15.498;2023-04-09T03:53:32;7.50;96.70
1988;DHT22;12775;46.994;15.498;2023-04-09T03:55:59;7.50;96.60
1988;DHT22;12775;46.994;15.498;2023-04-09T03:58:27;7.50;96.60
1988;DHT22;12775;46.994;15.498;2023-04-09T04:00:54;7.40;96.80
1988;DHT22;12775;46.994;15.498;2023-04-09T04:03:22;7.30;97.20
1988;DHT22;12775;46.994;15.498;2023-04-09T04:05:49;7.30;97.20
1988;DHT22;12775;46.994;15.498;2023-04-09T04:08:16;7.30;97.50
1988;DHT22;12775;46.994;15.498;2023-04-09T04:10:44;7.20;97.50
1988;DHT22;12775;46.994;15.498;2023-04-09T04:13:11;7.20;97.40
1988;DHT22;12775;46.994;15.498;2023-04-09T04:15:39;7.20;97.50
1988;DHT22;12775;46.994;15.498;2023-04-09T04:18:07;7.10;97.60
1988;DHT22;12775;46.994;15.498;2023-04-09T04:20:35;7.10;97.90
1988;DHT22;12775;46.994;15.498;2023-04-09T04:23:03;7.10;97.90
1988;DHT22;12775;46.994;15.498;2023-04-09T04:25:30;7.00;98.00
1988;DHT22;12775;46.994;15.498;2023-04-09T04:27:58;7.00;98.20
1988;DHT22;12775;46.994;15.498;2023-04-09T04:30:25;7.00;98.40
1988;DHT22;12775;46.994;15.498;2023-04-09T04:32:53;7.00;98.30
1988;DHT22;12775;46.994;15.498;2023-04-09T04:35:21;6.90;98.60
1988;DHT22;12775;46.994;15.498;2023-04-09T04:37:49;6.90;98.90
1988;DHT22;12775;46.994;15.498;2023-04-09T04:40:16;6.90;99.00
1988;DHT22;12775;46.994;15.498;2023-04-09T04:42:43;6.90;98.90
1988;DHT22;12775;46.994;15.498;2023-04-09T04:45:11;6.90;99.10
1988;DHT22;12775;46.994;15.498;2023-04-09T04:47:39;6.90;99.00
1988;DHT22;12775;46.994;15.498;2023-04-09T04:50:07;6.90;98.80
1988;DHT22;12775;46.994;15.498;2023-04-09T04:52:35;7.00;98.80
1988;DHT22;12775;46.994;15.498;2023-04-09T04:55:02;7.00;98.70
1988;DHT22;12775;46.994;15.498;2023-04-09T04:57:30;7.00;98.90
1988;DHT22;12775;46.994;15.498;2023-04-09T04:59:57;7.00;99.00
1988;DHT22;12775;46.994;15.498;2023-04-09T05:02:24;6.90;99.20
1988;DHT22;12775;46.994;15.498;2023-04-09T05:04:52;6.90;99.50
1988;DHT22;12775;46.994;15.498;2023-04-09T05:07:19;6.90;99.40
1988;DHT22;12775;46.994;15.498;2023-04-09T05:09:46;6.90;99.60
1988;DHT22;12775;46.994;15.498;2023-04-09T05:12:14;6.90;99.70
1988;DHT22;12775;46.994;15.498;2023-04-09T05:14:41;6.90;99.70
1988;DHT22;12775;46.994;15.498;2023-04-09T05:17:09;6.90;99.90
1988;DHT22;12775;46.994;15.498;2023-04-09T05:19:36;6.90;99.90
1988;DHT22;12775;46.994;15.498;2023-04-09T05:22:04;7.00;99.90
1988;DHT22;12775;46.994;15.498;2023-04-09T05:24:32;7.00;99.90
1988;DHT22;12775;46.994;15.498;2023-04-09T05:27:00;6.90;99.90
1988;DHT22;12775;46.994;15.498;2023-04-09T05:29:27;6.90;99.90
1988;DHT22;12775;46.994;15.498;2023-04-09T05:31:54;7.00;99.90
1988;DHT22;12775;46.994;15.498;2023-04-09T05:34:22;7.00;99.90
1988;DHT22;12775;46.994;15.498;2023-04-09T05:36:49;7.00;99.90
1988;DHT22;12775;46.994;15.498;2023-04-09T05:39:17;7.10;99.90
1988;DHT22;12775;46.994;15.498;2023-04-09T05:41:44;7.10;99.90
1988;DHT22;12775;46.994;15.498;2023-04-09T05:44:12;7.20;99.90
1988;DHT22;12775;46.994;15.498;2023-04-09T05:46:39;7.30;99.90
1988;DHT22;12775;46.994;15.498;2023-04-09T05:49:07;7.30;99.90
1988;DHT22;12775;46.994;15.498;2023-04-09T05:51:35;7.40;99.90
1988;DHT22;12775;46.994;15.498;2023-04-09T05:54:02;7.50;99.90
1988;DHT22;12775;46.994;15.498;2023-04-09T05:56:29;7.50;99.90
1988;DHT22;12775;46.994;15.498;2023-04-09T05:58:58;7.50;99.90
1988;DHT22;12775;46.994;15.498;2023-04-09T06:01:25;7.50;99.90
1988;DHT22;12775;46.994;15.498;2023-04-09T06:03:53;7.50;99.90
1988;DHT22;12775;46.994;15.498;2023-04-09T06:06:21;7.50;99.90
1988;DHT22;12775;46.994;15.498;2023-04-09T06:08:48;7.50;99.90
1988;DHT22;12775;46.994;15.498;2023-04-09T06:11:16;7.50;99.90
1988;DHT22;12775;46.994;15.498;2023-04-09T06:13:43;7.50;99.90
1988;DHT22;12775;46.994;15.498;2023-04-09T06:16:11;7.60;99.90
1988;DHT22;12775;46.994;15.498;2023-04-09T06:18:39;7.60;99.90
1988;DHT22;12775;46.994;15.498;2023-04-09T06:21:06;7.60;99.90
1988;DHT22;12775;46.994;15.498;2023-04-09T06:23:34;7.60;99.90
1988;DHT22;12775;46.994;15.498;2023-04-09T06:26:01;7.60;99.90
1988;DHT22;12775;46.994;15.498;2023-04-09T06:28:28;7.60;99.90
1988;DHT22;12775;46.994;15.498;2023-04-09T06:30:57;7.60;99.90
1988;DHT22;12775;46.994;15.498;2023-04-09T06:33:24;7.60;99.90
1988;DHT22;12775;46.994;15.498;2023-04-09T06:35:52;7.70;99.90
1988;DHT22;12775;46.994;15.498;2023-04-09T06:38:19;7.70;99.90
1988;DHT22;12775;46.994;15.498;2023-04-09T06:40:46;7.70;99.60
1988;DHT22;12775;46.994;15.498;2023-04-09T06:43:14;7.80;99.60
1988;DHT22;12775;46.994;15.498;2023-04-09T06:45:41;7.70;99.90
1988;DHT22;12775;46.994;15.498;2023-04-09T06:48:09;7.70;99.90
1988;DHT22;12775;46.994;15.498;2023-04-09T06:50:36;7.70;99.90
1988;DHT22;12775;46.994;15.498;2023-04-09T06:53:05;7.60;99.90
1988;DHT22;12775;46.994;15.498;2023-04-09T06:55:31;7.70;99.90
1988;DHT22;12775;46.994;15.498;2023-04-09T06:57:58;7.70;99.70
1988;DHT22;12775;46.994;15.498;2023-04-09T07:00:25;7.70;99.70
1988;DHT22;12775;46.994;15.498;2023-04-09T07:02:52;7.70;99.90
1988;DHT22;12775;46.994;15.498;2023-04-09T07:05:19;7.60;99.90
1988;DHT22;12775;46.994;15.498;2023-04-09T07:07:46;7.50;99.60
1988;DHT22;12775;46.994;15.498;2023-04-09T07:10:13;7.50;99.30
1988;DHT22;12775;46.994;15.498;2023-04-09T07:12:41;7.50;99.20
1988;DHT22;12775;46.994;15.498;2023-04-09T07:15:08;7.50;99.20
1988;DHT22;12775;46.994;15.498;2023-04-09T07:17:36;7.50;99.90
1988;DHT22;12775;46.994;15.498;2023-04-09T07:20:03;7.50;99.90
1988;DHT22;12775;46.994;15.498;2023-04-09T07:22:31;7.50;99.90
1988;DHT22;12775;46.994;15.498;2023-04-09T07:24:58;7.60;99.90
1988;DHT22;12775;46.994;15.498;2023-04-09T07:27:27;7.60;99.90
1988;DHT22;12775;46.994;15.498;2023-04-09T07:29:54;7.60;99.90
1988;DHT22;12775;46.994;15.498;2023-04-09T07:32:20;7.80;99.90
1988;DHT22;12775;46.994;15.498;2023-04-09T07:34:46;7.80;99.90
1988;DHT22;12775;46.994;15.498;2023-04-09T07:37:14;8.00;99.90
1988;DHT22;12775;46.994;15.498;2023-04-09T07:39:41;8.00;99.60
1988;DHT22;12775;46.994;15.498;2023-04-09T07:42:08;8.00;99.90
1988;DHT22;12775;46.994;15.498;2023-04-09T07:44:35;8.00;99.90
1988;DHT22;12775;46.994;15.498;2023-04-09T07:47:03;8.10;99.90
1988;DHT22;12775;46.994;15.498;2023-04-09T07:49:29;8.10;98.90
1988;DHT22;12775;46.994;15.498;2023-04-09T07:51:56;8.10;99.70
1988;DHT22;12775;46.994;15.498;2023-04-09T07:54:23;8.20;98.30
1988;DHT22;12775;46.994;15.498;2023-04-09T07:56:51;8.20;99.90
1988;DHT22;12775;46.994;15.498;2023-04-09T07:59:19;8.20;99.10
1988;DHT22;12775;46.994;15.498;2023-04-09T08:01:46;8.20;99.90
1988;DHT22;12775;46.994;15.498;2023-04-09T08:04:13;8.20;99.90
1988;DHT22;12775;46.994;15.498;2023-04-09T08:06:40;8.20;99.90
1988;DHT22;12775;46.994;15.498;2023-04-09T08:09:06;8.30;97.60
1988;DHT22;12775;46.994;15.498;2023-04-09T08:11:34;8.40;98.40
1988;DHT22;12775;46.994;15.498;2023-04-09T08:14:01;8.50;98.50
1988;DHT22;12775;46.994;15.498;2023-04-09T08:16:28;8.50;98.40
1988;DHT22;12775;46.994;15.498;2023-04-09T08:18:56;8.60;98.30
1988;DHT22;12775;46.994;15.498;2023-04-09T08:21:23;8.70;99.80
1988;DHT22;12775;46.994;15.498;2023-04-09T08:23:50;8.80;99.80
1988;DHT22;12775;46.994;15.498;2023-04-09T08:26:18;8.90;99.10
1988;DHT22;12775;46.994;15.498;2023-04-09T08:28:45;9.10;99.90
1988;DHT22;12775;46.994;15.498;2023-04-09T08:31:12;9.10;99.40
1988;DHT22;12775;46.994;15.498;2023-04-09T08:33:39;9.00;99.40
1988;DHT22;12775;46.994;15.498;2023-04-09T08:36:07;9.10;99.90
1988;DHT22;12775;46.994;15.498;2023-04-09T08:38:33;9.20;97.50
1988;DHT22;12775;46.994;15.498;2023-04-09T08:41:01;9.40;97.90
1988;DHT22;12775;46.994;15.498;2023-04-09T08:43:29;9.50;97.00
1988;DHT22;12775;46.994;15.498;2023-04-09T08:45:56;9.60;96.40
1988;DHT22;12775;46.994;15.498;2023-04-09T08:48:24;9.60;95.40
1988;DHT22;12775;46.994;15.498;2023-04-09T08:50:52;9.50;94.90
1988;DHT22;12775;46.994;15.498;2023-04-09T08:53:19;9.50;94.70
1988;DHT22;12775;46.994;15.498;2023-04-09T08:55:47;9.50;93.90
1988;DHT22;12775;46.994;15.498;2023-04-09T08:58:14;9.40;94.70
1988;DHT22;12775;46.994;15.498;2023-04-09T09:00:42;9.10;95.20
1988;DHT22;12775;46.994;15.498;2023-04-09T09:03:11;9.10;95.20
1988;DHT22;12775;46.994;15.498;2023-04-09T09:05:40;9.00;95.70
1988;DHT22;12775;46.994;15.498;2023-04-09T09:08:09;9.10;95.30
1988;DHT22;12775;46.994;15.498;2023-04-09T09:10:38;9.10;95.40
1988;DHT22;12775;46.994;15.498;2023-04-09T09:13:25;9.20;95.80
1988;DHT22;12775;46.994;15.498;2023-04-09T09:15:52;9.10;95.30
1988;DHT22;12775;46.994;15.498;2023-04-09T09:18:19;9.00;95.40
1988;DHT22;12775;46.994;15.498;2023-04-09T09:20:46;8.80;96.20
1988;DHT22;12775;46.994;15.498;2023-04-09T09:23:14;8.50;96.40
1988;DHT22;12775;46.994;15.498;2023-04-09T09:25:41;8.20;97.50
1988;DHT22;12775;46.994;15.498;2023-04-09T09:28:10;8.20;98.50
1988;DHT22;12775;46.994;15.498;2023-04-09T09:30:37;7.90;98.80
1988;DHT22;12775;46.994;15.498;2023-04-09T09:33:06;7.70;99.40
1988;DHT22;12775;46.994;15.498;2023-04-09T09:38:12;7.30;99.90
1988;DHT22;12775;46.994;15.498;2023-04-09T09:40:39;7.10;99.90
1988;DHT22;12775;46.994;15.498;2023-04-09T09:43:07;7.20;99.90
1988;DHT22;12775;46.994;15.498;2023-04-09T09:45:36;7.30;99.90
1988;DHT22;12775;46.994;15.498;2023-04-09T09:48:04;7.40;99.90
1988;DHT22;12775;46.994;15.498;2023-04-09T09:50:33;7.60;99.90
1988;DHT22;12775;46.994;15.498;2023-04-09T09:53:01;7.70;99.90
1988;DHT22;12775;46.994;15.498;2023-04-09T09:55:27;7.70;99.90
1988;DHT22;12775;46.994;15.498;2023-04-09T09:57:55;8.00;99.90
1988;DHT22;12775;46.994;15.498;2023-04-09T10:00:22;8.30;99.90
1988;DHT22;12775;46.994;15.498;2023-04-09T10:02:53;8.50;99.90
1988;DHT22;12775;46.994;15.498;2023-04-09T10:05:19;8.70;99.90
1988;DHT22;12775;46.994;15.498;2023-04-09T10:07:46;8.90;99.90
1988;DHT22;12775;46.994;15.498;2023-04-09T10:10:15;9.10;99.90
1988;DHT22;12775;46.994;15.498;2023-04-09T10:12:43;9.20;99.30
1988;DHT22;12775;46.994;15.498;2023-04-09T10:15:10;9.40;99.70
1988;DHT22;12775;46.994;15.498;2023-04-09T10:17:38;9.70;99.70
1988;DHT22;12775;46.994;15.498;2023-04-09T10:20:10;10.00;97.40
1988;DHT22;12775;46.994;15.498;2023-04-09T10:22:36;9.90;97.90
1988;DHT22;12775;46.994;15.498;2023-04-09T10:25:03;10.20;98.10
1988;DHT22;12775;46.994;15.498;2023-04-09T10:27:30;10.30;95.80
1988;DHT22;12775;46.994;15.498;2023-04-09T10:29:58;10.60;95.60
1988;DHT22;12775;46.994;15.498;2023-04-09T10:32:27;10.70;95.80
1988;DHT22;12775;46.994;15.498;2023-04-09T10:34:55;10.80;93.30
1988;DHT22;12775;46.994;15.498;2023-04-09T10:37:23;10.80;92.50
1988;DHT22;12775;46.994;15.498;2023-04-09T10:39:51;11.00;93.80
1988;DHT22;12775;46.994;15.498;2023-04-09T10:42:21;11.10;94.90
1988;DHT22;12775;46.994;15.498;2023-04-09T10:45:03;11.10;92.20
1988;DHT22;12775;46.994;15.498;2023-04-09T10:47:29;11.00;93.10
1988;DHT22;12775;46.994;15.498;2023-04-09T10:49:42;11.00;93.10
1988;DHT22;12775;46.994;15.498;2023-04-09T10:52:10;11.30;93.00
1988;DHT22;12775;46.994;15.498;2023-04-09T10:54:37;11.00;93.50
1988;DHT22;12775;46.994;15.498;2023-04-09T10:57:10;11.10;93.00
1988;DHT22;12775;46.994;15.498;2023-04-09T10:59:37;11.10;92.40
1988;DHT22;12775;46.994;15.498;2023-04-09T11:02:05;10.90;91.90
1988;DHT22;12775;46.994;15.498;2023-04-09T11:07:14;10.80;93.10
1988;DHT22;12775;46.994;15.498;2023-04-09T11:09:41;10.90;91.40
1988;DHT22;12775;46.994;15.498;2023-04-09T11:12:10;11.00;92.00
1988;DHT22;12775;46.994;15.498;2023-04-09T11:14:37;11.10;92.10
1988;DHT22;12775;46.994;15.498;2023-04-09T11:17:05;11.30;92.40
1988;DHT22;12775;46.994;15.498;2023-04-09T11:19:33;11.30;91.60
1988;DHT22;12775;46.994;15.498;2023-04-09T11:22:02;11.40;90.80
1988;DHT22;12775;46.994;15.498;2023-04-09T11:24:27;11.40;90.90
1988;DHT22;12775;46.994;15.498;2023-04-09T11:26:54;11.40;89.00
1988;DHT22;12775;46.994;15.498;2023-04-09T11:29:22;11.70;91.30
1988;DHT22;12775;46.994;15.498;2023-04-09T11:31:49;11.90;91.90
1988;DHT22;12775;46.994;15.498;2023-04-09T11:34:16;12.20;89.80
1988;DHT22;12775;46.994;15.498;2023-04-09T11:36:47;12.00;89.20
1988;DHT22;12775;46.994;15.498;2023-04-09T11:39:11;12.00;90.60
1988;DHT22;12775;46.994;15.498;2023-04-09T11:41:38;12.10;91.00
1988;DHT22;12775;46.994;15.498;2023-04-09T11:44:07;11.90;89.30
1988;DHT22;12775;46.994;15.498;2023-04-09T11:46:34;11.70;88.70
1988;DHT22;12775;46.994;15.498;2023-04-09T11:49:01;11.70;88.10
1988;DHT22;12775;46.994;15.498;2023-04-09T11:51:29;11.70;88.40
1988;DHT22;12775;46.994;15.498;2023-04-09T11:54:00;11.70;87.30
1988;DHT22;12775;46.994;15.498;2023-04-09T11:56:28;11.90;90.00
1988;DHT22;12775;46.994;15.498;2023-04-09T11:58:56;11.90;90.00
1988;DHT22;12775;46.994;15.498;2023-04-09T12:01:22;11.90;85.30
1988;DHT22;12775;46.994;15.498;2023-04-09T12:03:52;12.20;85.00
1988;DHT22;12775;46.994;15.498;2023-04-09T12:06:19;12.60;90.50
1988;DHT22;12775;46.994;15.498;2023-04-09T12:08:46;12.70;88.80
1988;DHT22;12775;46.994;15.498;2023-04-09T12:11:14;12.70;90.60
1988;DHT22;12775;46.994;15.498;2023-04-09T12:13:41;12.70;90.60
1988;DHT22;12775;46.994;15.498;2023-04-09T12:16:09;12.90;88.30
1988;DHT22;12775;46.994;15.498;2023-04-09T12:18:36;12.80;85.70
1988;DHT22;12775;46.994;15.498;2023-04-09T12:21:02;12.70;85.60
1988;DHT22;12775;46.994;15.498;2023-04-09T12:23:30;12.10;84.90
1988;DHT22;12775;46.994;15.498;2023-04-09T12:25:57;11.80;86.20
1988;DHT22;12775;46.994;15.498;2023-04-09T12:28:27;11.90;88.20
1988;DHT22;12775;46.994;15.498;2023-04-09T12:30:54;11.70;89.30
1988;DHT22;12775;46.994;15.498;2023-04-09T12:33:21;11.70;88.10
1988;DHT22;12775;46.994;15.498;2023-04-09T12:35:49;11.70;89.10
1988;DHT22;12775;46.994;15.498;2023-04-09T12:38:17;11.90;91.40
1988;DHT22;12775;46.994;15.498;2023-04-09T12:40:44;11.90;91.60
1988;DHT22;12775;46.994;15.498;2023-04-09T12:43:12;12.00;91.40
1988;DHT22;12775;46.994;15.498;2023-04-09T12:45:40;12.20;92.20
1988;DHT22;12775;46.994;15.498;2023-04-09T12:48:08;12.50;91.10
1988;DHT22;12775;46.994;15.498;2023-04-09T12:50:36;12.60;92.40
1988;DHT22;12775;46.994;15.498;2023-04-09T12:53:03;12.70;88.60
1988;DHT22;12775;46.994;15.498;2023-04-09T12:55:30;12.80;89.20
1988;DHT22;12775;46.994;15.498;2023-04-09T12:57:59;13.10;84.50
1988;DHT22;12775;46.994;15.498;2023-04-09T13:00:25;13.00;84.30
1988;DHT22;12775;46.994;15.498;2023-04-09T13:02:53;12.70;81.00
1988;DHT22;12775;46.994;15.498;2023-04-09T13:05:19;12.70;80.90
1988;DHT22;12775;46.994;15.498;2023-04-09T13:07:46;12.80;83.60
1988;DHT22;12775;46.994;15.498;2023-04-09T13:10:13;13.10;83.30
1988;DHT22;12775;46.994;15.498;2023-04-09T13:12:41;13.20;79.20
1988;DHT22;12775;46.994;15.498;2023-04-09T13:15:09;13.40;81.30
1988;DHT22;12775;46.994;15.498;2023-04-09T13:17:35;13.40;81.20
1988;DHT22;12775;46.994;15.498;2023-04-09T13:20:03;12.70;79.20
1988;DHT22;12775;46.994;15.498;2023-04-09T13:22:31;11.60;83.00
1988;DHT22;12775;46.994;15.498;2023-04-09T13:24:58;10.80;87.20
1988;DHT22;12775;46.994;15.498;2023-04-09T13:27:26;9.70;90.40
1988;DHT22;12775;46.994;15.498;2023-04-09T13:29:54;9.00;91.90
1988;DHT22;12775;46.994;15.498;2023-04-09T13:32:21;8.30;93.50
1988;DHT22;12775;46.994;15.498;2023-04-09T13:34:48;7.90;95.40
1988;DHT22;12775;46.994;15.498;2023-04-09T13:37:15;7.90;95.50
1988;DHT22;12775;46.994;15.498;2023-04-09T13:39:43;7.50;98.50
1988;DHT22;12775;46.994;15.498;2023-04-09T13:42:10;7.40;99.50
1988;DHT22;12775;46.994;15.498;2023-04-09T13:44:37;7.60;99.90
1988;DHT22;12775;46.994;15.498;2023-04-09T13:47:04;7.70;99.90
1988;DHT22;12775;46.994;15.498;2023-04-09T13:49:32;7.80;99.90
1988;DHT22;12775;46.994;15.498;2023-04-09T13:52:00;8.10;99.90
1988;DHT22;12775;46.994;15.498;2023-04-09T13:54:27;8.20;99.90
1988;DHT22;12775;46.994;15.498;2023-04-09T13:56:53;8.50;99.90
1988;DHT22;12775;46.994;15.498;2023-04-09T13:59:20;8.80;99.90
1988;DHT22;12775;46.994;15.498;2023-04-09T14:01:46;9.10;99.90
1988;DHT22;12775;46.994;15.498;2023-04-09T14:04:13;9.40;99.90
1988;DHT22;12775;46.994;15.498;2023-04-09T14:06:40;9.70;99.90
1988;DHT22;12775;46.994;15.498;2023-04-09T14:09:07;9.90;99.20
1988;DHT22;12775;46.994;15.498;2023-04-09T14:11:34;10.30;98.60
1988;DHT22;12775;46.994;15.498;2023-04-09T14:14:02;10.50;98.80
1988;DHT22;12775;46.994;15.498;2023-04-09T14:16:29;10.60;99.20
1988;DHT22;12775;46.994;15.498;2023-04-09T14:18:57;10.80;97.80
1988;DHT22;12775;46.994;15.498;2023-04-09T14:21:25;10.90;96.30
1988;DHT22;12775;46.994;15.498;2023-04-09T14:23:52;11.00;97.00
1988;DHT22;12775;46.994;15.498;2023-04-09T14:26:20;10.90;93.90
1988;DHT22;12775;46.994;15.498;2023-04-09T14:28:47;10.90;93.90
1988;DHT22;12775;46.994;15.498;2023-04-09T14:31:14;10.70;93.70
1988;DHT22;12775;46.994;15.498;2023-04-09T14:33:41;10.40;93.90
1988;DHT22;12775;46.994;15.498;2023-04-09T14:36:09;10.40;93.60
1988;DHT22;12775;46.994;15.498;2023-04-09T14:38:36;10.40;93.70
1988;DHT22;12775;46.994;15.498;2023-04-09T14:41:04;10.50;94.80
1988;DHT22;12775;46.994;15.498;2023-04-09T14:43:31;10.60;94.90
1988;DHT22;12775;46.994;15.498;2023-04-09T14:45:59;10.70;94.10
1988;DHT22;12775;46.994;15.498;2023-04-09T14:48:26;10.50;93.80
1988;DHT22;12775;46.994;15.498;2023-04-09T14:50:53;10.40;93.30
1988;DHT22;12775;46.994;15.498;2023-04-09T14:53:21;10.40;92.50
1988;DHT22;12775;46.994;15.498;2023-04-09T14:55:48;10.50;93.60
1988;DHT22;12775;46.994;15.498;2023-04-09T14:58:15;10.60;94.30
1988;DHT22;12775;46.994;15.498;2023-04-09T15:00:43;10.60;94.70
1988;DHT22;12775;46.994;15.498;2023-04-09T15:03:10;10.50;94.30
1988;DHT22;12775;46.994;15.498;2023-04-09T15:05:37;10.60;95.20
1988;DHT22;12775;46.994;15.498;2023-04-09T15:08:05;10.70;94.30
1988;DHT22;12775;46.994;15.498;2023-04-09T15:10:34;10.70;93.10
1988;DHT22;12775;46.994;15.498;2023-04-09T15:12:59;10.80;92.80
1988;DHT22;12775;46.994;15.498;2023-04-09T15:15:27;10.70;93.00
1988;DHT22;12775;46.994;15.498;2023-04-09T15:17:55;10.60;93.40
1988;DHT22;12775;46.994;15.498;2023-04-09T15:20:21;10.60;93.40
1988;DHT22;12775;46.994;15.498;2023-04-09T15:22:49;10.20;94.10
1988;DHT22;12775;46.994;15.498;2023-04-09T15:25:16;10.10;94.20
1988;DHT22;12775;46.994;15.498;2023-04-09T15:27:44;10.10;93.70
1988;DHT22;12775;46.994;15.498;2023-04-09T15:30:11;10.20;93.20
1988;DHT22;12775;46.994;15.498;2023-04-09T15:32:38;10.20;93.20
1988;DHT22;12775;46.994;15.498;2023-04-09T15:35:05;10.30;94.30
1988;DHT22;12775;46.994;15.498;2023-04-09T15:37:33;10.40;93.50
1988;DHT22;12775;46.994;15.498;2023-04-09T15:40:00;10.40;93.70
1988;DHT22;12775;46.994;15.498;2023-04-09T15:42:28;10.40;93.40
1988;DHT22;12775;46.994;15.498;2023-04-09T15:44:55;10.20;92.90
1988;DHT22;12775;46.994;15.498;2023-04-09T15:47:22;10.30;92.80
1988;DHT22;12775;46.994;15.498;2023-04-09T15:49:50;10.40;93.30
1988;DHT22;12775;46.994;15.498;2023-04-09T15:52:17;10.40;93.30